sensor_id;sensor_type;location;lat;lon;timestamp;P1;durP1;ratioP1;P2;durP2;ratioP2
18883;SDS011;9574;47.282;9.640;2022-11-18T00:00:21;2.80;;;1.80;;
18883;SDS011;9574;47.282;9.640;2022-11-18T00:02:52;1.90;;;1.70;;
18883;SDS011;9574;47.282;9.640;2022-11-18T00:05:22;1.70;;;1.60;;
18883;SDS011;9574;47.282;9.640;2022-11-18T00:07:53;2.33;;;1.90;;
18883;SDS011;9574;47.282;9.640;2022-11-18T00:10:22;4.30;;;2.40;;
18883;SDS011;9574;47.282;9.640;2022-11-18T00:12:49;3.50;;;2.40;;
18883;SDS011;9574;47.282;9.640;2022-11-18T00:15:35;2.50;;;1.97;;
18883;SDS011;9574;47.282;9.640;2022-11-18T00:18:02;3.83;;;2.30;;
18883;SDS011;9574;47.282;9.640;2022-11-18T00:20:29;2.77;;;2.23;;
18883;SDS011;9574;47.282;9.640;2022-11-18T00:22:58;4.00;;;2.97;;
18883;SDS011;9574;47.282;9.640;2022-11-18T00:25:28;4.27;;;2.20;;
18883;SDS011;9574;47.282;9.640;2022-11-18T00:27:58;2.57;;;2.23;;
18883;SDS011;9574;47.282;9.640;2022-11-18T00:30:25;2.70;;;2.13;;
18883;SDS011;9574;47.282;9.640;2022-11-18T00:32:59;2.67;;;2.17;;
18883;SDS011;9574;47.282;9.640;2022-11-18T00:35:28;2.57;;;2.30;;
18883;SDS011;9574;47.282;9.640;2022-11-18T00:37:55;3.20;;;1.90;;
18883;SDS011;9574;47.282;9.640;2022-11-18T00:40:25;3.77;;;2.30;;
18883;SDS011;9574;47.282;9.640;2022-11-18T00:42:52;3.33;;;2.40;;
18883;SDS011;9574;47.282;9.640;2022-11-18T00:45:20;3.20;;;2.33;;
18883;SDS011;9574;47.282;9.640;2022-11-18T00:47:51;2.27;;;2.00;;
18883;SDS011;9574;47.282;9.640;2022-11-18T00:50:21;2.17;;;1.97;;
18883;SDS011;9574;47.282;9.640;2022-11-18T00:52:48;3.70;;;2.30;;
18883;SDS011;9574;47.282;9.640;2022-11-18T00:55:18;3.20;;;2.03;;
18883;SDS011;9574;47.282;9.640;2022-11-18T00:57:52;4.50;;;1.90;;
18883;SDS011;9574;47.282;9.640;2022-11-18T01:00:22;3.07;;;2.27;;
18883;SDS011;9574;47.282;9.640;2022-11-18T01:02:49;3.17;;;2.00;;
18883;SDS011;9574;47.282;9.640;2022-11-18T01:05:26;2.93;;;2.20;;
18883;SDS011;9574;47.282;9.640;2022-11-18T01:07:58;3.50;;;2.03;;
18883;SDS011;9574;47.282;9.640;2022-11-18T01:10:25;2.30;;;2.10;;
18883;SDS011;9574;47.282;9.640;2022-11-18T01:12:55;3.53;;;2.70;;
18883;SDS011;9574;47.282;9.640;2022-11-18T01:15:41;3.70;;;2.60;;
18883;SDS011;9574;47.282;9.640;2022-11-18T01:18:14;2.83;;;2.53;;
18883;SDS011;9574;47.282;9.640;2022-11-18T01:20:44;3.13;;;2.80;;
18883;SDS011;9574;47.282;9.640;2022-11-18T01:23:15;3.70;;;2.90;;
18883;SDS011;9574;47.282;9.640;2022-11-18T01:25:47;3.00;;;2.70;;
18883;SDS011;9574;47.282;9.640;2022-11-18T01:28:17;6.37;;;3.10;;
18883;SDS011;9574;47.282;9.640;2022-11-18T01:30:45;4.13;;;2.80;;
18883;SDS011;9574;47.282;9.640;2022-11-18T01:33:21;3.40;;;2.87;;
18883;SDS011;9574;47.282;9.640;2022-11-18T01:35:59;3.67;;;2.70;;
18883;SDS011;9574;47.282;9.640;2022-11-18T01:38:28;3.87;;;2.80;;
18883;SDS011;9574;47.282;9.640;2022-11-18T01:40:58;3.27;;;2.70;;
18883;SDS011;9574;47.282;9.640;2022-11-18T01:43:44;5.93;;;2.90;;
18883;SDS011;9574;47.282;9.640;2022-11-18T01:46:14;3.23;;;2.90;;
18883;SDS011;9574;47.282;9.640;2022-11-18T01:48:44;5.80;;;2.80;;
18883;SDS011;9574;47.282;9.640;2022-11-18T01:51:21;4.30;;;3.13;;
18883;SDS011;9574;47.282;9.640;2022-11-18T01:53:53;4.17;;;3.17;;
18883;SDS011;9574;47.282;9.640;2022-11-18T01:56:31;4.17;;;2.93;;
18883;SDS011;9574;47.282;9.640;2022-11-18T01:59:03;4.00;;;2.97;;
18883;SDS011;9574;47.282;9.640;2022-11-18T02:01:36;3.80;;;2.90;;
18883;SDS011;9574;47.282;9.640;2022-11-18T02:04:06;3.17;;;2.60;;
18883;SDS011;9574;47.282;9.640;2022-11-18T02:06:51;2.77;;;2.50;;
18883;SDS011;9574;47.282;9.640;2022-11-18T02:09:21;4.63;;;2.50;;
18883;SDS011;9574;47.282;9.640;2022-11-18T02:11:49;4.73;;;2.43;;
18883;SDS011;9574;47.282;9.640;2022-11-18T02:14:21;1.97;;;1.63;;
18883;SDS011;9574;47.282;9.640;2022-11-18T02:16:58;1.83;;;1.40;;
18883;SDS011;9574;47.282;9.640;2022-11-18T02:19:49;0.70;;;0.70;;
18883;SDS011;9574;47.282;9.640;2022-11-18T02:25:45;0.50;;;0.50;;
18883;SDS011;9574;47.282;9.640;2022-11-18T02:28:34;0.50;;;0.50;;
18883;SDS011;9574;47.282;9.640;2022-11-18T02:31:16;0.50;;;0.50;;
18883;SDS011;9574;47.282;9.640;2022-11-18T02:33:51;0.90;;;0.40;;
18883;SDS011;9574;47.282;9.640;2022-11-18T02:36:26;0.40;;;0.40;;
18883;SDS011;9574;47.282;9.640;2022-11-18T02:39:02;0.80;;;0.80;;
18883;SDS011;9574;47.282;9.640;2022-11-18T02:41:35;1.17;;;1.07;;
18883;SDS011;9574;47.282;9.640;2022-11-18T02:44:08;0.80;;;0.80;;
18883;SDS011;9574;47.282;9.640;2022-11-18T02:46:39;1.00;;;0.90;;
18883;SDS011;9574;47.282;9.640;2022-11-18T02:49:11;1.03;;;0.80;;
18883;SDS011;9574;47.282;9.640;2022-11-18T02:51:48;1.87;;;0.67;;
18883;SDS011;9574;47.282;9.640;2022-11-18T02:54:17;0.50;;;0.50;;
18883;SDS011;9574;47.282;9.640;2022-11-18T02:56:46;0.60;;;0.60;;
18883;SDS011;9574;47.282;9.640;2022-11-18T02:59:17;0.60;;;0.60;;
18883;SDS011;9574;47.282;9.640;2022-11-18T03:01:51;0.40;;;0.40;;
18883;SDS011;9574;47.282;9.640;2022-11-18T03:04:19;1.03;;;0.80;;
18883;SDS011;9574;47.282;9.640;2022-11-18T03:06:50;0.40;;;0.40;;
18883;SDS011;9574;47.282;9.640;2022-11-18T03:09:29;0.57;;;0.57;;
18883;SDS011;9574;47.282;9.640;2022-11-18T03:12:02;0.50;;;0.50;;
18883;SDS011;9574;47.282;9.640;2022-11-18T03:14:39;0.50;;;0.50;;
18883;SDS011;9574;47.282;9.640;2022-11-18T03:17:19;0.50;;;0.50;;
18883;SDS011;9574;47.282;9.640;2022-11-18T03:20:04;0.50;;;0.50;;
18883;SDS011;9574;47.282;9.640;2022-11-18T03:22:40;0.40;;;0.40;;
18883;SDS011;9574;47.282;9.640;2022-11-18T03:25:16;0.50;;;0.50;;
18883;SDS011;9574;47.282;9.640;2022-11-18T03:27:52;0.57;;;0.57;;
18883;SDS011;9574;47.282;9.640;2022-11-18T03:30:25;1.63;;;0.60;;
18883;SDS011;9574;47.282;9.640;2022-11-18T03:32:57;0.70;;;0.70;;
18883;SDS011;9574;47.282;9.640;2022-11-18T03:35:31;0.60;;;0.60;;
18883;SDS011;9574;47.282;9.640;2022-11-18T03:38:07;2.60;;;0.50;;
18883;SDS011;9574;47.282;9.640;2022-11-18T03:40:43;0.60;;;0.40;;
18883;SDS011;9574;47.282;9.640;2022-11-18T03:43:15;0.50;;;0.50;;
18883;SDS011;9574;47.282;9.640;2022-11-18T03:45:47;0.50;;;0.50;;
18883;SDS011;9574;47.282;9.640;2022-11-18T03:48:24;0.57;;;0.57;;
18883;SDS011;9574;47.282;9.640;2022-11-18T03:50:56;0.50;;;0.50;;
18883;SDS011;9574;47.282;9.640;2022-11-18T03:53:29;0.50;;;0.50;;
18883;SDS011;9574;47.282;9.640;2022-11-18T03:56:05;1.80;;;0.40;;
18883;SDS011;9574;47.282;9.640;2022-11-18T03:58:37;0.60;;;0.50;;
18883;SDS011;9574;47.282;9.640;2022-11-18T04:01:10;0.57;;;0.57;;
18883;SDS011;9574;47.282;9.640;2022-11-18T04:03:45;0.47;;;0.47;;
18883;SDS011;9574;47.282;9.640;2022-11-18T04:06:19;0.50;;;0.50;;
18883;SDS011;9574;47.282;9.640;2022-11-18T04:08:52;0.43;;;0.43;;
18883;SDS011;9574;47.282;9.640;2022-11-18T04:11:28;0.40;;;0.40;;
18883;SDS011;9574;47.282;9.640;2022-11-18T04:14:17;0.70;;;0.70;;
18883;SDS011;9574;47.282;9.640;2022-11-18T04:16:49;0.63;;;0.60;;
18883;SDS011;9574;47.282;9.640;2022-11-18T04:19:21;2.20;;;0.83;;
18883;SDS011;9574;47.282;9.640;2022-11-18T04:21:50;0.67;;;0.67;;
18883;SDS011;9574;47.282;9.640;2022-11-18T04:24:20;0.57;;;0.57;;
18883;SDS011;9574;47.282;9.640;2022-11-18T04:26:47;0.50;;;0.50;;
18883;SDS011;9574;47.282;9.640;2022-11-18T04:29:20;0.60;;;0.60;;
18883;SDS011;9574;47.282;9.640;2022-11-18T04:31:47;0.60;;;0.60;;
18883;SDS011;9574;47.282;9.640;2022-11-18T04:34:19;1.00;;;0.60;;
18883;SDS011;9574;47.282;9.640;2022-11-18T04:36:48;0.80;;;0.80;;
18883;SDS011;9574;47.282;9.640;2022-11-18T04:39:18;0.60;;;0.60;;
18883;SDS011;9574;47.282;9.640;2022-11-18T04:41:47;0.70;;;0.60;;
18883;SDS011;9574;47.282;9.640;2022-11-18T04:44:24;0.70;;;0.70;;
18883;SDS011;9574;47.282;9.640;2022-11-18T04:46:57;0.60;;;0.60;;
18883;SDS011;9574;47.282;9.640;2022-11-18T04:49:32;0.70;;;0.70;;
18883;SDS011;9574;47.282;9.640;2022-11-18T04:52:00;0.50;;;0.50;;
18883;SDS011;9574;47.282;9.640;2022-11-18T04:54:34;0.60;;;0.60;;
18883;SDS011;9574;47.282;9.640;2022-11-18T04:57:05;0.70;;;0.70;;
18883;SDS011;9574;47.282;9.640;2022-11-18T04:59:35;2.10;;;0.70;;
18883;SDS011;9574;47.282;9.640;2022-11-18T05:02:09;0.60;;;0.60;;
18883;SDS011;9574;47.282;9.640;2022-11-18T05:04:38;0.50;;;0.50;;
18883;SDS011;9574;47.282;9.640;2022-11-18T05:07:06;0.50;;;0.50;;
18883;SDS011;9574;47.282;9.640;2022-11-18T05:09:38;0.50;;;0.50;;
18883;SDS011;9574;47.282;9.640;2022-11-18T05:12:08;0.50;;;0.50;;
18883;SDS011;9574;47.282;9.640;2022-11-18T05:14:56;0.70;;;0.70;;
18883;SDS011;9574;47.282;9.640;2022-11-18T05:17:23;0.97;;;0.77;;
18883;SDS011;9574;47.282;9.640;2022-11-18T05:19:55;0.70;;;0.70;;
18883;SDS011;9574;47.282;9.640;2022-11-18T05:22:26;0.60;;;0.57;;
18883;SDS011;9574;47.282;9.640;2022-11-18T05:24:53;0.63;;;0.63;;
18883;SDS011;9574;47.282;9.640;2022-11-18T05:27:23;0.50;;;0.50;;
18883;SDS011;9574;47.282;9.640;2022-11-18T05:29:51;0.57;;;0.57;;
18883;SDS011;9574;47.282;9.640;2022-11-18T05:32:19;0.50;;;0.50;;
18883;SDS011;9574;47.282;9.640;2022-11-18T05:34:49;0.63;;;0.63;;
18883;SDS011;9574;47.282;9.640;2022-11-18T05:37:20;0.53;;;0.53;;
18883;SDS011;9574;47.282;9.640;2022-11-18T05:39:49;0.60;;;0.60;;
18883;SDS011;9574;47.282;9.640;2022-11-18T05:42:19;0.93;;;0.60;;
18883;SDS011;9574;47.282;9.640;2022-11-18T05:45:04;0.50;;;0.50;;
18883;SDS011;9574;47.282;9.640;2022-11-18T05:47:35;0.83;;;0.70;;
18883;SDS011;9574;47.282;9.640;2022-11-18T05:50:23;0.60;;;0.60;;
18883;SDS011;9574;47.282;9.640;2022-11-18T05:52:57;1.20;;;0.90;;
18883;SDS011;9574;47.282;9.640;2022-11-18T05:55:26;1.93;;;0.80;;
18883;SDS011;9574;47.282;9.640;2022-11-18T05:58:02;1.80;;;1.20;;
18883;SDS011;9574;47.282;9.640;2022-11-18T06:00:34;1.00;;;0.90;;
18883;SDS011;9574;47.282;9.640;2022-11-18T06:03:03;0.87;;;0.87;;
18883;SDS011;9574;47.282;9.640;2022-11-18T06:05:39;1.27;;;0.77;;
18883;SDS011;9574;47.282;9.640;2022-11-18T06:08:08;0.90;;;0.90;;
18883;SDS011;9574;47.282;9.640;2022-11-18T06:10:41;0.97;;;0.80;;
18883;SDS011;9574;47.282;9.640;2022-11-18T06:13:14;0.80;;;0.80;;
18883;SDS011;9574;47.282;9.640;2022-11-18T06:15:44;2.07;;;1.00;;
18883;SDS011;9574;47.282;9.640;2022-11-18T06:18:13;1.30;;;0.83;;
18883;SDS011;9574;47.282;9.640;2022-11-18T06:20:47;1.10;;;1.00;;
18883;SDS011;9574;47.282;9.640;2022-11-18T06:23:18;1.20;;;1.00;;
18883;SDS011;9574;47.282;9.640;2022-11-18T06:25:47;0.60;;;0.60;;
18883;SDS011;9574;47.282;9.640;2022-11-18T06:28:15;0.60;;;0.60;;
18883;SDS011;9574;47.282;9.640;2022-11-18T06:30:44;1.13;;;0.70;;
18883;SDS011;9574;47.282;9.640;2022-11-18T06:33:11;0.60;;;0.60;;
18883;SDS011;9574;47.282;9.640;2022-11-18T06:35:41;0.50;;;0.50;;
18883;SDS011;9574;47.282;9.640;2022-11-18T06:38:10;0.80;;;0.80;;
18883;SDS011;9574;47.282;9.640;2022-11-18T06:40:40;0.80;;;0.80;;
18883;SDS011;9574;47.282;9.640;2022-11-18T06:43:10;2.93;;;1.07;;
18883;SDS011;9574;47.282;9.640;2022-11-18T06:45:56;1.40;;;0.90;;
18883;SDS011;9574;47.282;9.640;2022-11-18T06:48:43;1.17;;;1.17;;
18883;SDS011;9574;47.282;9.640;2022-11-18T06:51:11;1.50;;;1.40;;
18883;SDS011;9574;47.282;9.640;2022-11-18T06:53:39;4.37;;;3.97;;
18883;SDS011;9574;47.282;9.640;2022-11-18T06:56:11;1.70;;;1.60;;
18883;SDS011;9574;47.282;9.640;2022-11-18T06:58:43;2.17;;;1.03;;
18883;SDS011;9574;47.282;9.640;2022-11-18T07:01:14;1.53;;;1.23;;
18883;SDS011;9574;47.282;9.640;2022-11-18T07:03:48;1.07;;;0.90;;
18883;SDS011;9574;47.282;9.640;2022-11-18T07:06:16;3.87;;;1.40;;
18883;SDS011;9574;47.282;9.640;2022-11-18T07:08:49;1.47;;;1.00;;
18883;SDS011;9574;47.282;9.640;2022-11-18T07:11:19;0.80;;;0.80;;
18883;SDS011;9574;47.282;9.640;2022-11-18T07:13:51;2.30;;;0.90;;
18883;SDS011;9574;47.282;9.640;2022-11-18T07:16:21;1.43;;;0.83;;
18883;SDS011;9574;47.282;9.640;2022-11-18T07:18:50;1.23;;;1.13;;
18883;SDS011;9574;47.282;9.640;2022-11-18T07:21:19;1.20;;;1.10;;
18883;SDS011;9574;47.282;9.640;2022-11-18T07:23:50;1.03;;;0.83;;
18883;SDS011;9574;47.282;9.640;2022-11-18T07:26:22;0.70;;;0.70;;
18883;SDS011;9574;47.282;9.640;2022-11-18T07:28:52;0.73;;;0.70;;
18883;SDS011;9574;47.282;9.640;2022-11-18T07:31:25;1.17;;;0.60;;
18883;SDS011;9574;47.282;9.640;2022-11-18T07:33:53;2.10;;;1.50;;
18883;SDS011;9574;47.282;9.640;2022-11-18T07:36:23;2.33;;;1.80;;
18883;SDS011;9574;47.282;9.640;2022-11-18T07:38:59;1.70;;;1.60;;
18883;SDS011;9574;47.282;9.640;2022-11-18T07:41:34;1.60;;;1.50;;
18883;SDS011;9574;47.282;9.640;2022-11-18T07:44:04;4.70;;;1.70;;
18883;SDS011;9574;47.282;9.640;2022-11-18T07:46:35;2.50;;;1.23;;
18883;SDS011;9574;47.282;9.640;2022-11-18T07:49:06;1.10;;;1.00;;
18883;SDS011;9574;47.282;9.640;2022-11-18T07:51:40;1.07;;;0.80;;
18883;SDS011;9574;47.282;9.640;2022-11-18T07:54:07;1.00;;;0.60;;
18883;SDS011;9574;47.282;9.640;2022-11-18T07:56:40;2.60;;;2.40;;
18883;SDS011;9574;47.282;9.640;2022-11-18T07:59:11;1.53;;;1.30;;
18883;SDS011;9574;47.282;9.640;2022-11-18T08:01:44;1.17;;;1.07;;
18883;SDS011;9574;47.282;9.640;2022-11-18T08:04:11;2.90;;;1.33;;
18883;SDS011;9574;47.282;9.640;2022-11-18T08:06:45;1.20;;;1.10;;
18883;SDS011;9574;47.282;9.640;2022-11-18T08:09:17;2.43;;;1.10;;
18883;SDS011;9574;47.282;9.640;2022-11-18T08:11:47;1.40;;;1.10;;
18883;SDS011;9574;47.282;9.640;2022-11-18T08:14:17;4.03;;;2.50;;
18883;SDS011;9574;47.282;9.640;2022-11-18T08:16:53;4.20;;;2.27;;
18883;SDS011;9574;47.282;9.640;2022-11-18T08:19:23;2.17;;;1.40;;
18883;SDS011;9574;47.282;9.640;2022-11-18T08:21:53;1.67;;;1.30;;
18883;SDS011;9574;47.282;9.640;2022-11-18T08:24:23;0.90;;;0.90;;
18883;SDS011;9574;47.282;9.640;2022-11-18T08:26:54;1.10;;;1.00;;
18883;SDS011;9574;47.282;9.640;2022-11-18T08:29:21;1.10;;;1.10;;
18883;SDS011;9574;47.282;9.640;2022-11-18T08:31:53;1.43;;;1.20;;
18883;SDS011;9574;47.282;9.640;2022-11-18T08:34:21;3.00;;;1.00;;
18883;SDS011;9574;47.282;9.640;2022-11-18T08:36:54;3.50;;;1.53;;
18883;SDS011;9574;47.282;9.640;2022-11-18T08:39:25;1.10;;;1.07;;
18883;SDS011;9574;47.282;9.640;2022-11-18T08:42:01;2.13;;;1.40;;
18883;SDS011;9574;47.282;9.640;2022-11-18T08:44:30;1.70;;;1.27;;
18883;SDS011;9574;47.282;9.640;2022-11-18T08:47:02;1.60;;;1.37;;
18883;SDS011;9574;47.282;9.640;2022-11-18T08:49:34;1.40;;;1.30;;
18883;SDS011;9574;47.282;9.640;2022-11-18T08:52:05;1.57;;;1.47;;
18883;SDS011;9574;47.282;9.640;2022-11-18T08:54:38;2.53;;;2.17;;
18883;SDS011;9574;47.282;9.640;2022-11-18T08:57:10;2.63;;;2.23;;
18883;SDS011;9574;47.282;9.640;2022-11-18T08:59:37;2.47;;;1.60;;
18883;SDS011;9574;47.282;9.640;2022-11-18T09:02:11;2.00;;;1.40;;
18883;SDS011;9574;47.282;9.640;2022-11-18T09:04:45;1.27;;;1.17;;
18883;SDS011;9574;47.282;9.640;2022-11-18T09:07:18;1.00;;;0.90;;
18883;SDS011;9574;47.282;9.640;2022-11-18T09:09:51;1.00;;;0.90;;
18883;SDS011;9574;47.282;9.640;2022-11-18T09:12:24;1.80;;;1.20;;
18883;SDS011;9574;47.282;9.640;2022-11-18T09:14:54;1.37;;;1.27;;
18883;SDS011;9574;47.282;9.640;2022-11-18T09:17:21;1.30;;;1.10;;
18883;SDS011;9574;47.282;9.640;2022-11-18T09:19:50;2.87;;;2.10;;
18883;SDS011;9574;47.282;9.640;2022-11-18T09:22:17;1.93;;;1.60;;
18883;SDS011;9574;47.282;9.640;2022-11-18T09:24:50;1.13;;;1.03;;
18883;SDS011;9574;47.282;9.640;2022-11-18T09:27:19;1.00;;;1.00;;
18883;SDS011;9574;47.282;9.640;2022-11-18T09:29:48;1.57;;;1.20;;
18883;SDS011;9574;47.282;9.640;2022-11-18T09:32:16;1.50;;;1.40;;
18883;SDS011;9574;47.282;9.640;2022-11-18T09:34:44;2.40;;;1.40;;
18883;SDS011;9574;47.282;9.640;2022-11-18T09:37:17;0.80;;;0.80;;
18883;SDS011;9574;47.282;9.640;2022-11-18T09:39:44;0.97;;;0.97;;
18883;SDS011;9574;47.282;9.640;2022-11-18T09:42:18;1.30;;;1.20;;
18883;SDS011;9574;47.282;9.640;2022-11-18T09:45:04;1.17;;;1.03;;
18883;SDS011;9574;47.282;9.640;2022-11-18T09:47:43;1.70;;;1.60;;
18883;SDS011;9574;47.282;9.640;2022-11-18T09:50:15;11.57;;;5.10;;
18883;SDS011;9574;47.282;9.640;2022-11-18T09:52:54;5.23;;;2.80;;
18883;SDS011;9574;47.282;9.640;2022-11-18T09:55:33;11.23;;;4.73;;
18883;SDS011;9574;47.282;9.640;2022-11-18T09:58:05;10.03;;;4.87;;
18883;SDS011;9574;47.282;9.640;2022-11-18T10:00:45;6.80;;;3.87;;
18883;SDS011;9574;47.282;9.640;2022-11-18T10:03:21;5.57;;;2.97;;
18883;SDS011;9574;47.282;9.640;2022-11-18T10:05:56;4.10;;;2.03;;
18883;SDS011;9574;47.282;9.640;2022-11-18T10:08:35;2.43;;;1.77;;
18883;SDS011;9574;47.282;9.640;2022-11-18T10:11:12;1.73;;;1.30;;
18883;SDS011;9574;47.282;9.640;2022-11-18T10:13:48;2.07;;;1.40;;
18883;SDS011;9574;47.282;9.640;2022-11-18T10:16:34;1.20;;;1.10;;
18883;SDS011;9574;47.282;9.640;2022-11-18T10:19:10;1.57;;;0.90;;
18883;SDS011;9574;47.282;9.640;2022-11-18T10:21:50;1.20;;;0.83;;
18883;SDS011;9574;47.282;9.640;2022-11-18T10:24:40;1.67;;;0.93;;
18883;SDS011;9574;47.282;9.640;2022-11-18T10:27:13;1.43;;;1.27;;
18883;SDS011;9574;47.282;9.640;2022-11-18T10:29:43;1.50;;;1.40;;
18883;SDS011;9574;47.282;9.640;2022-11-18T10:32:19;2.40;;;2.07;;
18883;SDS011;9574;47.282;9.640;2022-11-18T10:34:49;4.17;;;2.03;;
18883;SDS011;9574;47.282;9.640;2022-11-18T10:37:22;3.90;;;1.67;;
18883;SDS011;9574;47.282;9.640;2022-11-18T10:39:56;1.33;;;1.23;;
18883;SDS011;9574;47.282;9.640;2022-11-18T10:42:34;2.20;;;1.10;;
18883;SDS011;9574;47.282;9.640;2022-11-18T10:45:14;2.80;;;1.23;;
18883;SDS011;9574;47.282;9.640;2022-11-18T10:47:57;1.00;;;0.87;;
18883;SDS011;9574;47.282;9.640;2022-11-18T10:50:29;2.67;;;0.70;;
18883;SDS011;9574;47.282;9.640;2022-11-18T10:52:58;1.20;;;0.80;;
18883;SDS011;9574;47.282;9.640;2022-11-18T10:55:26;1.10;;;1.00;;
18883;SDS011;9574;47.282;9.640;2022-11-18T10:58:00;1.10;;;1.00;;
18883;SDS011;9574;47.282;9.640;2022-11-18T11:00:38;1.30;;;0.93;;
18883;SDS011;9574;47.282;9.640;2022-11-18T11:03:24;1.00;;;0.70;;
18883;SDS011;9574;47.282;9.640;2022-11-18T11:08:58;1.47;;;1.20;;
18883;SDS011;9574;47.282;9.640;2022-11-18T11:11:33;1.50;;;1.40;;
18883;SDS011;9574;47.282;9.640;2022-11-18T11:14:05;2.70;;;1.70;;
18883;SDS011;9574;47.282;9.640;2022-11-18T11:16:45;2.20;;;2.00;;
18883;SDS011;9574;47.282;9.640;2022-11-18T11:19:24;2.53;;;2.00;;
18883;SDS011;9574;47.282;9.640;2022-11-18T11:22:06;4.47;;;2.07;;
18883;SDS011;9574;47.282;9.640;2022-11-18T11:24:35;9.33;;;2.53;;
18883;SDS011;9574;47.282;9.640;2022-11-18T11:27:13;8.23;;;3.50;;
18883;SDS011;9574;47.282;9.640;2022-11-18T11:30:08;4.83;;;2.87;;
18883;SDS011;9574;47.282;9.640;2022-11-18T11:33:07;2.67;;;1.20;;
18883;SDS011;9574;47.282;9.640;2022-11-18T11:36:10;1.93;;;1.03;;
18883;SDS011;9574;47.282;9.640;2022-11-18T11:38:58;1.27;;;1.07;;
18883;SDS011;9574;47.282;9.640;2022-11-18T11:41:34;2.13;;;0.90;;
18883;SDS011;9574;47.282;9.640;2022-11-18T11:44:16;2.87;;;1.40;;
18883;SDS011;9574;47.282;9.640;2022-11-18T11:46:55;1.40;;;0.80;;
18883;SDS011;9574;47.282;9.640;2022-11-18T11:49:48;2.07;;;1.10;;
18883;SDS011;9574;47.282;9.640;2022-11-18T11:52:25;1.80;;;1.10;;
18883;SDS011;9574;47.282;9.640;2022-11-18T11:55:02;3.07;;;1.30;;
18883;SDS011;9574;47.282;9.640;2022-11-18T11:57:39;2.07;;;1.70;;
18883;SDS011;9574;47.282;9.640;2022-11-18T12:00:15;1.40;;;1.27;;
18883;SDS011;9574;47.282;9.640;2022-11-18T12:02:48;0.90;;;0.90;;
18883;SDS011;9574;47.282;9.640;2022-11-18T12:05:29;1.33;;;1.10;;
18883;SDS011;9574;47.282;9.640;2022-11-18T12:08:05;1.20;;;0.80;;
18883;SDS011;9574;47.282;9.640;2022-11-18T12:10:41;2.10;;;1.20;;
18883;SDS011;9574;47.282;9.640;2022-11-18T12:13:31;0.80;;;0.80;;
18883;SDS011;9574;47.282;9.640;2022-11-18T12:16:13;4.40;;;1.83;;
18883;SDS011;9574;47.282;9.640;2022-11-18T12:18:53;5.47;;;2.00;;
18883;SDS011;9574;47.282;9.640;2022-11-18T12:24:31;0.70;;;0.70;;
18883;SDS011;9574;47.282;9.640;2022-11-18T12:27:02;1.53;;;1.43;;
18883;SDS011;9574;47.282;9.640;2022-11-18T12:29:43;0.70;;;0.70;;
18883;SDS011;9574;47.282;9.640;2022-11-18T12:32:33;0.50;;;0.50;;
18883;SDS011;9574;47.282;9.640;2022-11-18T12:35:21;0.57;;;0.57;;
18883;SDS011;9574;47.282;9.640;2022-11-18T12:38:02;0.50;;;0.50;;
18883;SDS011;9574;47.282;9.640;2022-11-18T12:40:41;2.07;;;1.23;;
18883;SDS011;9574;47.282;9.640;2022-11-18T12:55:18;0.50;;;0.50;;
18883;SDS011;9574;47.282;9.640;2022-11-18T12:58:00;0.50;;;0.50;;
18883;SDS011;9574;47.282;9.640;2022-11-18T13:00:30;0.70;;;0.70;;
18883;SDS011;9574;47.282;9.640;2022-11-18T13:03:23;1.37;;;0.60;;
18883;SDS011;9574;47.282;9.640;2022-11-18T13:06:04;1.13;;;0.83;;
18883;SDS011;9574;47.282;9.640;2022-11-18T13:08:40;0.63;;;0.63;;
18883;SDS011;9574;47.282;9.640;2022-11-18T13:11:13;0.80;;;0.80;;
18883;SDS011;9574;47.282;9.640;2022-11-18T13:14:12;2.77;;;0.97;;
18883;SDS011;9574;47.282;9.640;2022-11-18T13:17:00;1.17;;;1.07;;
18883;SDS011;9574;47.282;9.640;2022-11-18T13:19:57;0.80;;;0.73;;
18883;SDS011;9574;47.282;9.640;2022-11-18T13:22:28;1.00;;;0.80;;
18883;SDS011;9574;47.282;9.640;2022-11-18T13:25:22;1.10;;;0.60;;
18883;SDS011;9574;47.282;9.640;2022-11-18T13:27:55;1.00;;;0.90;;
18883;SDS011;9574;47.282;9.640;2022-11-18T13:30:31;0.80;;;0.80;;
18883;SDS011;9574;47.282;9.640;2022-11-18T13:33:03;0.80;;;0.80;;
18883;SDS011;9574;47.282;9.640;2022-11-18T13:35:42;0.70;;;0.70;;
18883;SDS011;9574;47.282;9.640;2022-11-18T13:38:20;1.00;;;0.80;;
18883;SDS011;9574;47.282;9.640;2022-11-18T13:40:54;1.50;;;0.80;;
18883;SDS011;9574;47.282;9.640;2022-11-18T13:43:40;0.77;;;0.77;;
18883;SDS011;9574;47.282;9.640;2022-11-18T13:46:17;0.77;;;0.70;;
18883;SDS011;9574;47.282;9.640;2022-11-18T13:48:48;0.60;;;0.60;;
18883;SDS011;9574;47.282;9.640;2022-11-18T13:51:20;0.70;;;0.70;;
18883;SDS011;9574;47.282;9.640;2022-11-18T13:53:51;1.03;;;0.70;;
18883;SDS011;9574;47.282;9.640;2022-11-18T13:56:19;0.63;;;0.60;;
18883;SDS011;9574;47.282;9.640;2022-11-18T13:58:51;0.60;;;0.60;;
18883;SDS011;9574;47.282;9.640;2022-11-18T14:01:22;0.80;;;0.70;;
18883;SDS011;9574;47.282;9.640;2022-11-18T14:03:52;0.70;;;0.70;;
18883;SDS011;9574;47.282;9.640;2022-11-18T14:06:26;1.27;;;0.97;;
18883;SDS011;9574;47.282;9.640;2022-11-18T14:09:03;1.17;;;0.93;;
18883;SDS011;9574;47.282;9.640;2022-11-18T14:11:35;1.10;;;0.97;;
18883;SDS011;9574;47.282;9.640;2022-11-18T14:14:05;1.10;;;1.00;;
18883;SDS011;9574;47.282;9.640;2022-11-18T14:16:37;0.83;;;0.83;;
18883;SDS011;9574;47.282;9.640;2022-11-18T14:19:06;0.60;;;0.60;;
18883;SDS011;9574;47.282;9.640;2022-11-18T14:21:51;0.60;;;0.57;;
18883;SDS011;9574;47.282;9.640;2022-11-18T14:24:24;0.50;;;0.50;;
18883;SDS011;9574;47.282;9.640;2022-11-18T14:26:52;0.83;;;0.70;;
18883;SDS011;9574;47.282;9.640;2022-11-18T14:29:20;0.50;;;0.50;;
18883;SDS011;9574;47.282;9.640;2022-11-18T14:34:55;0.60;;;0.60;;
18883;SDS011;9574;47.282;9.640;2022-11-18T14:37:26;0.50;;;0.50;;
18883;SDS011;9574;47.282;9.640;2022-11-18T14:39:53;0.83;;;0.67;;
18883;SDS011;9574;47.282;9.640;2022-11-18T14:42:24;0.67;;;0.67;;
18883;SDS011;9574;47.282;9.640;2022-11-18T14:44:51;1.17;;;0.80;;
18883;SDS011;9574;47.282;9.640;2022-11-18T14:47:27;1.77;;;0.87;;
18883;SDS011;9574;47.282;9.640;2022-11-18T14:49:57;1.87;;;0.97;;
18883;SDS011;9574;47.282;9.640;2022-11-18T14:52:24;0.50;;;0.50;;
18883;SDS011;9574;47.282;9.640;2022-11-18T14:54:52;0.60;;;0.60;;
18883;SDS011;9574;47.282;9.640;2022-11-18T14:57:19;0.83;;;0.80;;
18883;SDS011;9574;47.282;9.640;2022-11-18T14:59:48;0.57;;;0.47;;
18883;SDS011;9574;47.282;9.640;2022-11-18T15:02:22;0.60;;;0.60;;
18883;SDS011;9574;47.282;9.640;2022-11-18T15:04:52;6.53;;;4.07;;
18883;SDS011;9574;47.282;9.640;2022-11-18T15:07:21;3.17;;;2.00;;
18883;SDS011;9574;47.282;9.640;2022-11-18T15:09:49;1.47;;;1.10;;
18883;SDS011;9574;47.282;9.640;2022-11-18T15:12:16;0.60;;;0.60;;
18883;SDS011;9574;47.282;9.640;2022-11-18T15:14:45;4.50;;;0.97;;
18883;SDS011;9574;47.282;9.640;2022-11-18T15:17:13;0.50;;;0.50;;
18883;SDS011;9574;47.282;9.640;2022-11-18T15:19:46;0.57;;;0.57;;
18883;SDS011;9574;47.282;9.640;2022-11-18T15:22:16;1.20;;;0.90;;
18883;SDS011;9574;47.282;9.640;2022-11-18T15:24:46;5.33;;;2.03;;
18883;SDS011;9574;47.282;9.640;2022-11-18T15:27:15;5.80;;;3.50;;
18883;SDS011;9574;47.282;9.640;2022-11-18T15:29:43;4.87;;;2.70;;
18883;SDS011;9574;47.282;9.640;2022-11-18T15:32:15;4.40;;;2.73;;
18883;SDS011;9574;47.282;9.640;2022-11-18T15:34:49;2.27;;;1.90;;
18883;SDS011;9574;47.282;9.640;2022-11-18T15:37:19;1.93;;;1.70;;
18883;SDS011;9574;47.282;9.640;2022-11-18T15:39:49;1.80;;;1.60;;
18883;SDS011;9574;47.282;9.640;2022-11-18T15:42:19;3.50;;;1.50;;
18883;SDS011;9574;47.282;9.640;2022-11-18T15:44:50;1.60;;;1.50;;
18883;SDS011;9574;47.282;9.640;2022-11-18T15:47:19;2.60;;;1.50;;
18883;SDS011;9574;47.282;9.640;2022-11-18T15:49:47;1.67;;;1.47;;
18883;SDS011;9574;47.282;9.640;2022-11-18T15:52:18;2.57;;;1.30;;
18883;SDS011;9574;47.282;9.640;2022-11-18T15:54:49;2.30;;;1.80;;
18883;SDS011;9574;47.282;9.640;2022-11-18T15:57:18;2.23;;;1.77;;
18883;SDS011;9574;47.282;9.640;2022-11-18T15:59:50;2.93;;;2.60;;
18883;SDS011;9574;47.282;9.640;2022-11-18T16:02:20;2.67;;;1.90;;